Time;durP1;ratioP1;P1;durP2;ratioP2;P2;SDS_P1;SDS_P2;PMS_P1;PMS_P2;Temp;Humidity;BMP_temperature;BMP_pressure;BME280_temperature;BME280_humidity;BME280_pressure;Samples;Min_cycle;Max_cycle;Signal;HPM_P1;HPM_P2
2023/03/16 00:02:23;;;;;;;2.67;1.60;;;;;;;-1.75;100.00;101338.00;4947555;28;20074;-81
2023/03/16 00:04:50;;;;;;;2.07;1.40;;;;;;;-1.75;100.00;101334.53;4933848;29;20071;-81
2023/03/16 00:07:17;;;;;;;3.47;1.70;;;;;;;-1.70;100.00;101338.16;4909140;29;20059;-81
2023/03/16 00:09:43;;;;;;;5.20;2.43;;;;;;;-1.60;100.00;101342.88;4930359;29;20138;-81
2023/03/16 00:12:15;;;;;;;3.50;2.17;;;;;;;-1.59;100.00;101336.03;4933695;29;20058;-81
2023/03/16 00:14:43;;;;;;;3.67;1.60;;;;;;;-1.61;100.00;101335.06;4950990;29;20043;-80
2023/03/16 00:17:17;;;;;;;5.03;2.20;;;;;;;-1.59;100.00;101330.84;4954191;28;20048;-81
2023/03/16 00:19:53;;;;;;;3.13;1.77;;;;;;;-1.55;100.00;101337.91;4931740;29;20560;-82
2023/03/16 00:22:22;;;;;;;4.30;1.80;;;;;;;-1.56;100.00;101333.53;4915900;29;20043;-81
2023/03/16 00:24:49;;;;;;;3.20;1.57;;;;;;;-1.59;100.00;101336.91;4931821;29;20406;-81
2023/03/16 00:27:16;;;;;;;4.33;1.80;;;;;;;-1.57;100.00;101339.56;4946247;28;20538;-81
2023/03/16 00:29:47;;;;;;;3.67;1.73;;;;;;;-1.60;100.00;101334.22;4952014;28;20047;-80
2023/03/16 00:32:16;;;;;;;2.57;1.50;;;;;;;-1.66;100.00;101332.31;4922095;29;20514;-81
2023/03/16 00:34:46;;;;;;;5.17;1.80;;;;;;;-1.71;100.00;101328.63;4954816;29;20039;-81
2023/03/16 00:37:15;;;;;;;2.50;1.63;;;;;;;-1.69;100.00;101329.56;4925684;29;20747;-81
2023/03/16 00:39:42;;;;;;;3.43;1.80;;;;;;;-1.70;100.00;101331.28;4968338;23;20049;-84
2023/03/16 00:42:10;;;;;;;3.00;1.30;;;;;;;-1.71;100.00;101339.88;4937046;28;20915;-83
2023/03/16 00:44:37;;;;;;;5.40;1.90;;;;;;;-1.64;100.00;101341.00;4982373;28;20039;-83
2023/03/16 00:47:07;;;;;;;3.37;1.50;;;;;;;-1.66;100.00;101340.06;4949838;28;20047;-82
2023/03/16 00:49:35;;;;;;;5.83;2.00;;;;;;;-1.52;100.00;101341.47;4938466;28;20071;-82
2023/03/16 00:52:03;;;;;;;4.97;1.83;;;;;;;-1.54;100.00;101334.47;4956575;28;20054;-82
2023/03/16 00:54:31;;;;;;;3.37;1.90;;;;;;;-1.58;100.00;101353.34;4938227;28;20047;-82
2023/03/16 00:56:59;;;;;;;4.00;1.60;;;;;;;-1.63;100.00;101339.31;4957242;28;20047;-83
2023/03/16 00:59:26;;;;;;;3.30;1.73;;;;;;;-1.60;100.00;101349.78;4937285;28;20101;-82
2023/03/16 01:01:53;;;;;;;3.50;1.80;;;;;;;-1.62;100.00;101348.84;4943138;28;20042;-82
2023/03/16 01:04:20;;;;;;;2.37;1.50;;;;;;;-1.65;100.00;101346.13;4960787;28;20050;-82
2023/03/16 01:06:48;;;;;;;2.80;1.57;;;;;;;-1.70;100.00;101343.34;4945210;28;20058;-82
2023/03/16 01:09:14;;;;;;;3.83;1.50;;;;;;;-1.76;100.00;101356.97;4977568;28;20067;-82
2023/03/16 01:11:42;;;;;;;3.63;2.20;;;;;;;-1.80;100.00;101357.66;4956687;28;20046;-82
2023/03/16 01:14:09;;;;;;;4.47;1.70;;;;;;;-1.66;100.00;101349.56;4941951;29;20528;-82
2023/03/16 01:16:36;;;;;;;4.80;1.73;;;;;;;-1.80;100.00;101352.47;4942357;29;20416;-82
2023/03/16 01:19:02;;;;;;;7.77;2.50;;;;;;;-1.86;100.00;101359.97;4926632;29;20106;-82
2023/03/16 01:21:31;;;;;;;5.83;1.60;;;;;;;-1.86;100.00;101359.97;4945821;28;20512;-82
2023/03/16 01:23:58;;;;;;;4.20;1.50;;;;;;;-1.92;100.00;101357.16;4946577;28;20089;-82
2023/03/16 01:26:25;;;;;;;9.00;1.97;;;;;;;-1.93;100.00;101357.06;4957003;28;20407;-82
2023/03/16 01:28:53;;;;;;;2.50;1.60;;;;;;;-1.99;100.00;101356.00;4965615;28;20419;-82
2023/03/16 01:31:20;;;;;;;2.63;1.60;;;;;;;-2.00;100.00;101358.56;4948219;28;20053;-82
2023/03/16 01:33:47;;;;;;;4.13;1.60;;;;;;;-2.03;100.00;101354.09;4946069;28;20589;-82
2023/03/16 01:36:16;;;;;;;5.53;1.63;;;;;;;-2.01;100.00;101354.19;4948399;28;20515;-82
2023/03/16 01:38:44;;;;;;;9.10;2.60;;;;;;;-2.04;100.00;101359.22;4960929;28;20087;-81
2023/03/16 01:41:10;;;;;;;2.20;1.27;;;;;;;-2.06;100.00;101358.28;4962358;28;20073;-83
2023/03/16 01:43:38;;;;;;;4.13;1.60;;;;;;;-2.08;100.00;101357.34;4947474;28;20043;-83
2023/03/16 01:46:05;;;;;;;3.70;1.37;;;;;;;-2.14;100.00;101357.97;4958920;28;20664;-82
2023/03/16 01:48:36;;;;;;;4.23;1.73;;;;;;;-2.13;100.00;101348.50;4941925;29;20051;-83
2023/03/16 01:51:12;;;;;;;4.50;1.33;;;;;;;-2.20;100.00;101354.22;4971950;28;20408;-85
2023/03/16 01:53:40;;;;;;;2.80;1.40;;;;;;;-2.22;100.00;101351.59;4939364;29;20039;-84
2023/03/16 01:56:09;;;;;;;4.13;2.23;;;;;;;-2.18;100.00;101350.03;4959864;28;20042;-84
2023/03/16 01:58:36;;;;;;;3.57;2.00;;;;;;;-2.16;100.00;101362.19;4946909;29;20058;-85
2023/03/16 02:01:03;;;;;;;2.50;1.60;;;;;;;-2.20;100.00;101357.69;4970399;28;20047;-84
2023/03/16 02:03:34;;;;;;;3.80;1.97;;;;;;;-2.20;100.00;101360.28;4938559;29;20046;-85
2023/03/16 02:06:07;;;;;;;4.93;1.80;;;;;;;-2.20;100.00;101364.59;4941266;28;20047;-85
2023/03/16 02:08:35;;;;;;;5.17;2.33;;;;;;;-2.27;100.00;101354.00;4946798;28;20393;-84
2023/03/16 02:11:03;;;;;;;3.17;2.10;;;;;;;-2.31;100.00;101359.84;4955684;28;20047;-85
2023/03/16 02:13:32;;;;;;;4.00;1.43;;;;;;;-2.36;100.00;101356.16;4938716;29;20043;-85
2023/03/16 02:15:59;;;;;;;4.83;1.80;;;;;;;-2.37;100.00;101354.41;4942241;28;20038;-83
2023/03/16 02:18:27;;;;;;;5.50;2.43;;;;;;;-2.33;100.00;101351.13;4957845;28;20043;-84
2023/03/16 02:21:11;;;;;;;3.70;3.20;;;;;;;-2.28;100.00;101356.50;4932442;29;20050;-84
2023/03/16 02:23:37;;;;;;;6.03;2.30;;;;;;;-2.25;100.00;101350.59;4950803;28;20039;-85
2023/03/16 02:26:14;;;;;;;3.80;1.70;;;;;;;-2.29;100.00;101347.84;4932293;29;20389;-84
2023/03/16 02:28:48;;;;;;;8.80;2.43;;;;;;;-2.31;100.00;101349.50;4936955;28;20039;-85
2023/03/16 02:31:16;;;;;;;4.10;1.60;;;;;;;-2.31;100.00;101352.06;4938600;28;20206;-84
2023/03/16 02:33:44;;;;;;;4.77;1.90;;;;;;;-2.32;100.00;101350.31;4935502;29;20086;-84
2023/03/16 02:36:13;;;;;;;4.87;2.33;;;;;;;-2.30;100.00;101348.66;4936316;28;20077;-85
2023/03/16 02:38:40;;;;;;;4.73;2.20;;;;;;;-2.29;100.00;101350.44;4936292;29;20043;-84
2023/03/16 02:41:14;;;;;;;8.30;2.07;;;;;;;-2.25;100.00;101356.63;4953196;28;20047;-85
2023/03/16 02:43:46;;;;;;;5.40;2.20;;;;;;;-2.32;100.00;101352.03;4947573;28;20065;-85
2023/03/16 02:46:13;;;;;;;3.77;2.27;;;;;;;-2.37;100.00;101344.03;4922473;29;20082;-84
2023/03/16 02:48:48;;;;;;;5.53;2.00;;;;;;;-2.35;100.00;101355.38;4937597;29;20051;-85
2023/03/16 02:51:14;;;;;;;7.28;2.00;;;;;;;-2.31;100.00;101352.06;4953206;28;20512;-86
2023/03/16 02:53:41;;;;;;;3.77;2.40;;;;;;;-2.34;100.00;101351.97;4936828;29;20051;-86
2023/03/16 02:56:08;;;;;;;4.80;2.23;;;;;;;-2.36;100.00;101355.28;4936647;28;20089;-83
2023/03/16 02:58:34;;;;;;;5.60;2.27;;;;;;;-2.38;100.00;101355.22;4938869;28;20485;-85
2023/03/16 03:01:02;;;;;;;3.60;1.70;;;;;;;-2.40;100.00;101355.97;4953251;28;20050;-86
2023/03/16 03:03:29;;;;;;;3.83;2.03;;;;;;;-2.43;100.00;101364.50;4956082;28;20109;-85
2023/03/16 03:05:55;;;;;;;8.10;2.93;;;;;;;-2.42;100.00;101363.69;4924387;29;20036;-84
2023/03/16 03:08:22;;;;;;;3.43;1.80;;;;;;;-2.44;100.00;101370.47;4943358;28;20067;-85
2023/03/16 03:10:49;;;;;;;4.77;2.10;;;;;;;-2.46;100.00;101371.22;4939614;28;20054;-85
2023/03/16 03:13:16;;;;;;;4.27;1.83;;;;;;;-2.49;100.00;101377.16;4921541;29;20054;-84
2023/03/16 03:15:42;;;;;;;5.73;2.60;;;;;;;-2.51;100.00;101373.63;4958221;28;20069;-85
2023/03/16 03:18:09;;;;;;;9.17;2.10;;;;;;;-2.56;100.00;101377.72;4937396;28;20047;-85
2023/03/16 03:20:36;;;;;;;5.50;2.10;;;;;;;-2.57;100.00;101386.28;4964612;28;20057;-84
2023/03/16 03:23:04;;;;;;;4.67;2.20;;;;;;;-2.57;100.00;101391.47;4960735;28;20046;-84
2023/03/16 03:25:33;;;;;;;4.77;1.87;;;;;;;-2.59;100.00;101390.53;4968023;28;20054;-85
2023/03/16 03:28:03;;;;;;;4.67;2.60;;;;;;;-2.63;100.00;101391.19;4930682;28;20130;-84
2023/03/16 03:30:31;;;;;;;6.93;2.20;;;;;;;-2.64;100.00;101390.31;4935700;28;20055;-85
2023/03/16 03:32:58;;;;;;;2.90;1.70;;;;;;;-2.63;100.00;101396.38;4950934;28;20047;-85
2023/03/16 03:35:25;;;;;;;6.63;2.40;;;;;;;-2.64;100.00;101394.59;4935261;28;20061;-84
2023/03/16 03:37:52;;;;;;;3.70;2.10;;;;;;;-2.66;100.00;101398.81;4960787;28;20042;-84
2023/03/16 03:40:19;;;;;;;4.60;2.10;;;;;;;-2.68;100.00;101400.47;4923262;28;20042;-84
2023/03/16 03:42:46;;;;;;;4.30;2.10;;;;;;;-2.65;100.00;101405.75;4954978;28;20054;-84
2023/03/16 03:45:14;;;;;;;3.30;1.70;;;;;;;-2.68;100.00;101398.75;4938170;28;20042;-85
2023/03/16 03:47:42;;;;;;;3.57;2.50;;;;;;;-2.67;100.00;101408.28;4954660;28;20106;-84
2023/03/16 03:50:10;;;;;;;3.53;1.87;;;;;;;-2.67;100.00;101407.41;4952966;28;20450;-85
2023/03/16 03:52:36;;;;;;;7.13;2.50;;;;;;;-2.52;100.00;101408.09;4954636;28;20039;-83
2023/03/16 03:55:04;;;;;;;4.50;2.33;;;;;;;-2.60;100.00;101401.69;4951040;28;20043;-84
2023/03/16 03:57:31;;;;;;;5.23;2.20;;;;;;;-2.66;100.00;101409.16;4944949;28;20043;-83
2023/03/16 03:59:58;;;;;;;5.00;2.50;;;;;;;-2.69;100.00;101404.75;4952651;28;20046;-83
2023/03/16 04:02:25;;;;;;;6.40;2.50;;;;;;;-2.60;100.00;101406.88;4953369;28;20567;-83
2023/03/16 04:04:51;;;;;;;3.83;2.13;;;;;;;-2.61;100.00;101398.22;4940070;28;20085;-83
2023/03/16 04:07:18;;;;;;;4.20;1.90;;;;;;;-2.62;100.00;101401.59;4923749;29;20047;-84
2023/03/16 04:09:45;;;;;;;4.73;2.37;;;;;;;-2.66;100.00;101402.28;4971194;28;20686;-83
2023/03/16 04:12:12;;;;;;;4.87;3.00;;;;;;;-2.66;100.00;101398.81;4938791;29;20054;-83
2023/03/16 04:14:38;;;;;;;4.20;1.97;;;;;;;-2.69;100.00;101393.50;4939107;29;20043;-83
2023/03/16 04:17:06;;;;;;;4.50;2.20;;;;;;;-2.69;100.00;101394.41;4925860;29;20133;-83
2023/03/16 04:19:32;;;;;;;5.87;1.93;;;;;;;-2.71;100.00;101397.72;4939064;29;20511;-83
2023/03/16 04:21:59;;;;;;;5.93;2.37;;;;;;;-2.72;100.00;101395.97;4952004;28;20509;-85
2023/03/16 04:24:26;;;;;;;6.90;3.23;;;;;;;-2.74;100.00;101398.47;4955551;29;20584;-85
2023/03/16 04:26:53;;;;;;;3.67;2.10;;;;;;;-2.71;100.00;101405.47;4947556;29;20046;-85
2023/03/16 04:29:20;;;;;;;5.63;2.27;;;;;;;-2.73;100.00;101404.53;4943189;28;20129;-84
2023/03/16 04:31:46;;;;;;;6.37;3.23;;;;;;;-2.76;100.00;101407.88;4972060;28;20385;-83
2023/03/16 04:34:13;;;;;;;3.40;2.20;;;;;;;-2.76;100.00;101401.81;4927188;29;20130;-85
2023/03/16 04:36:40;;;;;;;6.57;2.40;;;;;;;-2.84;100.00;101399.78;4955372;28;20050;-84
2023/03/16 04:39:08;;;;;;;6.17;2.60;;;;;;;-2.83;100.00;101396.38;4948832;28;20055;-85
2023/03/16 04:41:35;;;;;;;5.87;2.40;;;;;;;-2.88;100.00;101408.19;4955016;28;20042;-83
2023/03/16 04:44:03;;;;;;;6.60;2.53;;;;;;;-2.89;100.00;101401.25;4943085;28;20038;-85
2023/03/16 04:46:30;;;;;;;5.07;2.50;;;;;;;-2.88;100.00;101415.06;4970788;28;20038;-85
2023/03/16 04:48:57;;;;;;;8.27;2.90;;;;;;;-2.88;100.00;101415.94;4947123;28;20456;-84
2023/03/16 04:51:24;;;;;;;4.77;2.50;;;;;;;-2.90;100.00;101419.28;4942056;28;20043;-84
2023/03/16 04:53:51;;;;;;;5.83;3.00;;;;;;;-2.94;100.00;101413.09;4959897;28;20054;-84
2023/03/16 04:56:18;;;;;;;5.07;2.23;;;;;;;-2.85;100.00;101417.81;4940048;28;20042;-84
2023/03/16 04:58:49;;;;;;;4.83;2.10;;;;;;;-2.85;100.00;101418.69;4939032;29;20035;-83
2023/03/16 05:01:17;;;;;;;4.60;3.00;;;;;;;-2.84;100.00;101420.47;4938779;29;20070;-85
2023/03/16 05:03:43;;;;;;;4.63;2.70;;;;;;;-2.81;100.00;101424.00;4940459;29;20078;-84
2023/03/16 05:06:11;;;;;;;6.47;2.30;;;;;;;-2.81;100.00;101418.81;4939113;29;20050;-84
2023/03/16 05:08:37;;;;;;;6.17;3.43;;;;;;;-2.81;100.00;101418.81;4939447;29;20044;-84
2023/03/16 05:11:04;;;;;;;4.80;2.60;;;;;;;-2.81;100.00;101430.03;4950158;28;20097;-84
2023/03/16 05:13:31;;;;;;;5.63;2.27;;;;;;;-2.81;100.00;101427.47;4934379;29;20051;-84
2023/03/16 05:15:58;;;;;;;7.50;2.80;;;;;;;-2.77;100.00;101429.38;4958805;28;20589;-85
2023/03/16 05:18:24;;;;;;;3.67;2.10;;;;;;;-2.79;100.00;101428.41;4949481;28;20035;-85
2023/03/16 05:20:52;;;;;;;6.67;2.83;;;;;;;-2.82;100.00;101430.88;4942761;28;20055;-85
2023/03/16 05:23:19;;;;;;;4.47;2.10;;;;;;;-2.85;100.00;101429.03;4973608;28;20043;-85
2023/03/16 05:25:46;;;;;;;4.30;2.43;;;;;;;-2.86;100.00;101436.69;4937905;28;20054;-85
2023/03/16 05:28:13;;;;;;;5.13;2.30;;;;;;;-2.89;100.00;101437.44;4957894;28;20051;-85
2023/03/16 05:30:41;;;;;;;7.00;2.60;;;;;;;-2.90;100.00;101435.69;4950277;28;20054;-82
2023/03/16 05:33:08;;;;;;;6.30;2.40;;;;;;;-2.90;100.00;101439.97;4956620;28;20053;-82
2023/03/16 05:35:35;;;;;;;5.67;2.63;;;;;;;-2.83;100.00;101444.63;4954892;28;20049;-85
2023/03/16 05:38:02;;;;;;;6.73;2.23;;;;;;;-2.88;100.00;101448.66;4971464;28;20443;-85
2023/03/16 05:40:28;;;;;;;6.63;2.30;;;;;;;-2.91;100.00;101443.38;4969590;28;20041;-84
2023/03/16 05:42:56;;;;;;;4.13;2.23;;;;;;;-2.92;100.00;101447.66;4957855;28;20608;-84
2023/03/16 05:45:23;;;;;;;3.90;1.97;;;;;;;-2.90;100.00;101458.06;4953761;28;20040;-82
2023/03/16 05:47:50;;;;;;;3.53;2.17;;;;;;;-2.87;100.00;101448.75;4939571;28;20054;-84
2023/03/16 05:50:17;;;;;;;4.00;1.90;;;;;;;-2.74;100.00;101452.78;4928837;28;20134;-83
2023/03/16 05:52:44;;;;;;;4.67;1.97;;;;;;;-2.64;100.00;101454.09;4936204;29;20046;-82
2023/03/16 05:55:13;;;;;;;2.47;1.73;;;;;;;-2.74;100.00;101462.25;4946369;28;20047;-84
2023/03/16 05:57:40;;;;;;;5.30;2.00;;;;;;;-2.78;100.00;101461.19;4953869;28;20051;-83
2023/03/16 06:00:14;;;;;;;3.70;2.13;;;;;;;-2.93;100.00;101455.34;4951406;28;20532;-83
2023/03/16 06:02:42;;;;;;;3.83;2.38;;;;;;;-2.90;100.00;101468.41;4963339;28;20095;-83
2023/03/16 06:05:09;;;;;;;4.30;2.13;;;;;;;-2.94;100.00;101466.50;4956373;28;20074;-83
2023/03/16 06:07:36;;;;;;;4.10;1.80;;;;;;;-2.86;100.00;101476.41;4957681;28;20046;-84
2023/03/16 06:10:04;;;;;;;4.73;2.17;;;;;;;-2.94;100.00;101466.50;4941139;28;20510;-82
2023/03/16 06:12:33;;;;;;;6.10;2.50;;;;;;;-2.94;100.00;101471.69;4957640;28;20125;-83
2023/03/16 06:15:00;;;;;;;3.30;1.90;;;;;;;-2.97;100.00;101477.56;4976381;28;20047;-83
2023/03/16 06:17:27;;;;;;;4.27;2.33;;;;;;;-2.97;100.00;101475.00;4977020;28;20066;-83
2023/03/16 06:19:53;;;;;;;4.63;2.10;;;;;;;-2.95;100.00;101477.63;4961016;28;20046;-83
2023/03/16 06:22:20;;;;;;;5.03;1.80;;;;;;;-2.93;100.00;101476.91;4937691;28;20508;-84
2023/03/16 06:24:47;;;;;;;4.60;2.23;;;;;;;-2.91;100.00;101485.63;4954147;28;20039;-84
2023/03/16 06:27:14;;;;;;;3.20;2.03;;;;;;;-2.86;100.00;101486.75;4948162;28;20119;-82
2023/03/16 06:29:40;;;;;;;2.67;1.83;;;;;;;-2.78;100.00;101488.75;4934148;28;20072;-83
2023/03/16 06:32:07;;;;;;;9.27;2.73;;;;;;;-2.75;100.00;101482.06;4983931;28;20041;-83
2023/03/16 06:34:35;;;;;;;6.20;2.87;;;;;;;-2.65;100.00;101485.94;4938409;29;20047;-84
2023/03/16 06:37:03;;;;;;;2.53;1.83;;;;;;;-2.60;100.00;101489.66;4971617;28;20035;-84
2023/03/16 06:39:30;;;;;;;4.60;2.27;;;;;;;-2.57;100.00;101495.81;4953465;29;20049;-83
2023/03/16 06:41:57;;;;;;;3.80;2.00;;;;;;;-2.52;100.00;101503.81;4948054;28;20121;-83
2023/03/16 06:44:24;;;;;;;4.80;2.33;;;;;;;-2.47;100.00;101510.06;4956413;28;20054;-82
2023/03/16 06:46:50;;;;;;;3.80;2.27;;;;;;;-2.41;100.00;101510.34;4954543;28;20444;-83
2023/03/16 06:49:17;;;;;;;6.60;3.23;;;;;;;-2.35;100.00;101520.09;4949025;29;20046;-81
2023/03/16 06:51:43;;;;;;;5.10;2.20;;;;;;;-2.31;100.00;101528.06;4958961;28;20733;-82
2023/03/16 06:56:59;;;;;;;7.73;2.77;;;;;;;-2.24;100.00;101520.59;4986674;28;20911;-78
2023/03/16 06:59:25;;;;;;;4.87;1.97;;;;;;;-2.19;100.00;101532.00;4957224;28;20139;-76
2023/03/16 07:01:52;;;;;;;4.37;2.17;;;;;;;-2.13;100.00;101522.81;4953341;28;20065;-77
2023/03/16 07:04:19;;;;;;;5.53;2.50;;;;;;;-2.08;100.00;101520.44;4955817;28;20057;-76
2023/03/16 07:06:46;;;;;;;4.43;2.10;;;;;;;-2.01;100.00;101520.78;4989072;28;20038;-77
2023/03/16 07:09:12;;;;;;;6.77;2.83;;;;;;;-1.93;100.00;101521.13;4972566;28;20108;-77
2023/03/16 07:11:39;;;;;;;4.23;3.03;;;;;;;-1.87;100.00;101526.56;4971946;28;20049;-77
2023/03/16 07:14:06;;;;;;;8.07;2.77;;;;;;;-1.79;100.00;101530.34;4973492;28;20122;-76
2023/03/16 07:16:33;;;;;;;5.17;2.40;;;;;;;-1.67;100.00;101539.50;4966109;28;20488;-77
2023/03/16 07:19:00;;;;;;;8.57;2.83;;;;;;;-1.49;100.00;101537.69;4956797;28;20058;-78
2023/03/16 07:21:27;;;;;;;7.47;2.50;;;;;;;-1.28;100.00;101540.28;4966691;28;20049;-78
2023/03/16 07:23:55;;;;;;;4.77;2.87;;;;;;;-1.01;100.00;101553.47;4989072;28;20048;-77
2023/03/16 07:26:22;;;;;;;9.77;3.43;;;;;;;-0.78;100.00;101547.50;4957814;28;20042;-77
2023/03/16 07:28:49;;;;;;;4.47;2.00;;;;;;;-0.64;100.00;101551.53;4989338;28;20042;-77
2023/03/16 07:31:15;;;;;;;6.93;2.20;;;;;;;-0.43;100.00;101546.28;4992600;28;20072;-78
2023/03/16 07:33:42;;;;;;;5.47;3.40;;;;;;;-0.21;100.00;101555.78;4990561;28;20049;-77
2023/03/16 07:36:09;;;;;;;5.80;2.60;;;;;;;-0.06;100.00;101548.56;4995149;28;20034;-77
2023/03/16 07:38:36;;;;;;;4.77;2.80;;;;;;;0.11;100.00;101553.47;4989552;28;20666;-77
2023/03/16 07:41:03;;;;;;;3.87;2.40;;;;;;;0.33;100.00;101563.78;4960078;28;20097;-77
2023/03/16 07:43:30;;;;;;;7.00;3.10;;;;;;;0.48;100.00;101558.25;4994744;28;20053;-77
2023/03/16 07:45:57;;;;;;;6.90;2.50;;;;;;;0.59;100.00;101550.81;4992975;28;20443;-78
2023/03/16 07:48:23;;;;;;;4.37;2.73;;;;;;;0.71;100.00;101567.72;4990344;28;20045;-77
2023/03/16 07:50:50;;;;;;;9.80;3.57;;;;;;;0.80;100.00;101554.16;4992817;28;20113;-78
2023/03/16 07:53:17;;;;;;;5.03;2.73;;;;;;;0.90;100.00;101553.63;4993627;28;20046;-78
2023/03/16 07:55:44;;;;;;;7.07;3.10;;;;;;;0.95;100.00;101554.66;4976673;28;20046;-77
2023/03/16 07:58:13;;;;;;;4.73;2.47;;;;;;;1.06;100.00;101547.19;4992900;28;20495;-77
2023/03/16 08:00:41;;;;;;;6.60;3.23;;;;;;;1.19;100.00;101554.56;4992228;28;20049;-77
2023/03/16 08:03:08;;;;;;;3.37;2.40;;;;;;;1.23;100.00;101555.53;4977419;28;20050;-77
2023/03/16 08:05:34;;;;;;;11.87;3.70;;;;;;;1.33;100.00;101548.06;4974646;28;20053;-77
2023/03/16 08:08:01;;;;;;;6.83;2.47;;;;;;;1.47;100.00;101545.91;4976186;28;20045;-77
2023/03/16 08:10:28;;;;;;;4.77;2.50;;;;;;;1.48;100.00;101552.88;4993979;28;20038;-77
2023/03/16 08:12:55;;;;;;;6.07;2.97;;;;;;;1.54;100.00;101545.25;4992806;28;20042;-78
2023/03/16 08:15:23;;;;;;;5.27;2.70;;;;;;;1.55;100.00;101544.41;4991469;28;20376;-77
2023/03/16 08:17:51;;;;;;;5.40;2.17;;;;;;;1.61;100.00;101548.94;4988495;28;20593;-77
2023/03/16 08:20:17;;;;;;;6.67;2.57;;;;;;;1.68;100.00;101543.94;4998375;28;20043;-77
2023/03/16 08:22:45;;;;;;;4.40;2.37;;;;;;;1.85;100.00;101546.13;4968110;28;20072;-77
2023/03/16 08:25:13;;;;;;;6.03;2.10;;;;;;;1.97;100.00;101550.00;4968405;28;20049;-77
2023/03/16 08:27:41;;;;;;;5.63;2.97;;;;;;;1.92;100.00;101553.31;4992283;28;20046;-77
2023/03/16 08:30:10;;;;;;;4.17;2.77;;;;;;;1.96;100.00;101558.66;5005413;28;20611;-76
2023/03/16 08:32:39;;;;;;;6.77;3.27;;;;;;;1.98;100.00;101556.97;5004063;28;20093;-77
2023/03/16 08:35:12;;;;;;;3.93;2.50;;;;;;;2.06;100.00;101567.63;4995333;28;20041;-77
2023/03/16 08:37:40;;;;;;;5.80;2.83;;;;;;;2.20;100.00;101568.03;4981181;28;20046;-77
2023/03/16 08:40:14;;;;;;;3.20;2.10;;;;;;;2.20;100.00;101568.03;4974086;28;20030;-77
2023/03/16 08:42:41;;;;;;;;;;;;;;;2.34;100.00;101574.47;4993572;28;20442;-76
2023/03/16 08:45:09;;;;;;;5.37;2.20;;;;;;;2.37;100.00;101585.03;4990401;28;19922;-76
2023/03/16 08:47:39;;;;;;;3.80;2.23;;;;;;;2.41;100.00;101572.94;4993007;28;20388;-75
2023/03/16 08:50:07;;;;;;;4.77;2.23;;;;;;;2.48;100.00;101585.31;4991004;28;20046;-76
2023/03/16 08:52:35;;;;;;;2.77;1.70;;;;;;;2.63;100.00;101590.06;4997893;28;20046;-76
2023/03/16 08:55:06;;;;;;;2.83;1.43;;;;;;;2.62;100.00;101589.19;4974806;28;20105;-76
2023/03/16 08:57:33;;;;;;;4.67;2.23;;;;;;;2.93;96.43;101576.91;4992000;28;20038;-76
2023/03/16 09:00:00;;;;;;;9.70;5.03;;;;;;;2.88;97.00;101588.97;5001598;28;20070;-77
2023/03/16 09:02:27;;;;;;;6.70;2.50;;;;;;;2.89;95.18;101588.13;4975698;28;20038;-76
2023/03/16 09:04:55;;;;;;;3.90;1.93;;;;;;;2.91;97.13;101597.75;4983606;28;20049;-76
2023/03/16 09:07:21;;;;;;;5.60;2.00;;;;;;;3.06;98.91;101592.03;4987858;28;20081;-76
2023/03/16 09:09:49;;;;;;;4.83;2.33;;;;;;;3.20;98.16;101589.78;4993763;28;20035;-77
2023/03/16 09:12:16;;;;;;;5.33;1.70;;;;;;;3.47;91.26;101582.59;4996070;28;20064;-76
2023/03/16 09:14:44;;;;;;;6.13;2.00;;;;;;;3.66;93.11;101589.13;4993561;28;20061;-77
2023/03/16 09:17:11;;;;;;;5.13;1.83;;;;;;;3.99;95.69;101596.81;5011286;28;20046;-77
2023/03/16 09:19:39;;;;;;;4.20;1.60;;;;;;;4.23;94.35;101596.44;5011706;28;20495;-77
2023/03/16 09:22:18;;;;;;;3.47;1.77;;;;;;;4.59;93.72;101590.16;4995324;28;20491;-77
2023/03/16 09:24:46;;;;;;;6.83;1.70;;;;;;;4.79;92.77;101589.69;4997250;28;20109;-77
2023/03/16 09:27:14;;;;;;;5.57;1.67;;;;;;;4.95;87.55;101582.94;4987526;28;20034;-77
2023/03/16 09:29:41;;;;;;;11.73;2.90;;;;;;;5.32;79.26;101583.56;4991451;28;20125;-77
2023/03/16 09:32:08;;;;;;;4.83;2.17;;;;;;;5.57;84.38;101588.34;5002710;28;20046;-77
2023/03/16 09:34:35;;;;;;;6.67;2.03;;;;;;;5.93;80.81;101585.38;4983055;28;20049;-77
2023/03/16 09:37:01;;;;;;;8.13;2.57;;;;;;;6.13;79.35;101595.22;4995464;28;20121;-77
2023/03/16 09:39:28;;;;;;;3.93;1.90;;;;;;;6.30;74.68;101593.69;4992478;28;20042;-77
2023/03/16 09:42:06;;;;;;;6.33;1.80;;;;;;;6.57;79.23;101582.66;4991214;28;20484;-77
2023/03/16 09:44:43;;;;;;;5.27;2.10;;;;;;;6.72;77.35;101584.53;4974948;28;20530;-77
2023/03/16 09:47:11;;;;;;;6.37;2.30;;;;;;;6.95;68.75;101585.63;4955305;28;20046;-77
2023/03/16 09:49:48;;;;;;;3.90;1.70;;;;;;;7.14;73.05;101589.28;4995926;28;20041;-77
2023/03/16 09:52:45;;;;;;;3.83;1.90;;;;;;;7.36;65.95;101592.09;4972956;28;21539;-77
2023/03/16 09:55:27;;;;;;;5.47;2.00;;;;;;;7.59;65.83;101586.16;4988037;28;20065;-77
2023/03/16 09:57:54;;;;;;;5.20;3.13;;;;;;;7.68;65.96;101589.72;4973973;28;20492;-77
2023/03/16 10:00:25;;;;;;;5.17;2.23;;;;;;;7.72;65.33;101597.63;4990441;28;20097;-77
2023/03/16 10:03:20;;;;;;;5.80;2.43;;;;;;;7.86;60.93;101595.06;4985773;28;20044;-77
2023/03/16 10:05:51;;;;;;;4.87;2.60;;;;;;;8.06;61.30;101593.41;4986876;28;20472;-77
2023/03/16 10:08:34;;;;;;;8.10;3.87;;;;;;;8.31;63.48;101594.41;4972815;28;20047;-77
2023/03/16 10:11:31;;;;;;;5.50;2.70;;;;;;;8.50;59.43;101589.25;4989267;28;20042;-77
2023/03/16 10:14:03;;;;;;;5.30;2.03;;;;;;;8.70;60.06;101585.78;4982940;28;20551;-77
2023/03/16 10:16:37;;;;;;;4.60;2.10;;;;;;;8.31;50.92;101585.63;4982721;28;20049;-77
2023/03/16 10:19:22;;;;;;;2.13;1.48;;;;;;;8.41;55.16;101580.44;4998980;28;20035;-76
2023/03/16 10:21:49;;;;;;;;;;;;;;;8.64;53.75;101585.75;4973328;28;20035;-77
2023/03/16 10:24:40;;;;;;;3.90;2.20;;;;;;;8.76;52.81;101577.00;4989081;28;19929;-77
2023/03/16 10:27:15;;;;;;;4.90;1.93;;;;;;;8.98;54.25;101577.91;4990218;28;20034;-77
2023/03/16 10:29:42;;;;;;;3.57;1.80;;;;;;;9.11;54.62;101578.78;4985751;28;20057;-77
2023/03/16 10:32:15;;;;;;;3.77;1.57;;;;;;;9.29;52.91;101573.50;4977556;28;20407;-77
2023/03/16 10:34:55;;;;;;;4.77;2.03;;;;;;;9.38;51.94;101570.00;4992565;28;20400;-77
2023/03/16 10:37:23;;;;;;;4.80;1.70;;;;;;;9.57;49.62;101574.34;5004313;28;20399;-77
2023/03/16 10:39:49;;;;;;;5.20;2.00;;;;;;;9.25;46.43;101561.22;4975758;28;20441;-76
2023/03/16 10:42:18;;;;;;;4.60;1.60;;;;;;;9.43;49.75;101562.97;4989225;28;20050;-76
2023/03/16 10:44:46;;;;;;;5.63;2.10;;;;;;;9.54;51.49;101571.72;4985198;28;20134;-76
2023/03/16 10:47:17;;;;;;;3.00;2.63;;;;;;;9.39;46.26;101558.56;4982258;28;20125;-77
2023/03/16 10:49:47;;;;;;;3.25;1.75;;;;;;;9.51;49.76;101559.44;4988844;28;20073;-76
2023/03/16 10:52:38;;;;;;;6.15;1.70;;;;;;;9.54;48.67;101561.19;4990133;28;20042;-77
2023/03/16 10:55:20;;;;;;;3.53;1.90;;;;;;;9.63;46.04;101562.91;4964884;28;20085;-76
2023/03/16 10:57:50;;;;;;;5.70;1.50;;;;;;;9.35;45.57;101555.06;4989810;28;20554;-76
2023/03/16 11:00:29;;;;;;;3.50;1.80;;;;;;;9.41;45.83;101554.16;4989269;28;20392;-77
2023/03/16 11:02:58;;;;;;;4.18;1.95;;;;;;;9.24;45.51;101556.81;4987568;28;20046;-76
2023/03/16 11:05:29;;;;;;;3.50;1.33;;;;;;;9.48;47.48;101562.06;4957344;28;20053;-77
2023/03/16 11:08:01;;;;;;;3.40;1.63;;;;;;;9.68;48.33;101550.59;4988893;28;20045;-77
2023/03/16 11:10:34;;;;;;;5.10;1.67;;;;;;;9.87;48.16;101554.94;4986418;28;20046;-77
2023/03/16 11:13:17;;;;;;;6.85;2.60;;;;;;;9.96;45.80;101552.25;4956042;28;20034;-77
2023/03/16 11:15:54;;;;;;;5.63;2.00;;;;;;;10.02;45.76;101548.72;4989288;28;20089;-77
2023/03/16 11:18:45;;;;;;;3.67;2.03;;;;;;;9.84;44.91;101547.03;4988785;28;20092;-76
2023/03/16 11:21:16;;;;;;;4.05;2.22;;;;;;;9.97;46.30;101553.13;4969992;28;20101;-76
2023/03/16 11:23:48;;;;;;;3.40;1.45;;;;;;;10.10;46.88;101544.31;4973620;28;20060;-77
2023/03/16 11:26:31;;;;;;;3.67;1.30;;;;;;;10.08;44.70;101536.34;4973370;28;20038;-77
2023/03/16 11:29:08;;;;;;;3.90;2.03;;;;;;;10.16;46.27;101531.94;4985350;28;20038;-77
2023/03/16 11:31:44;;;;;;;6.97;2.58;;;;;;;10.26;45.60;101535.47;4988935;28;20100;-77
2023/03/16 11:34:16;;;;;;;5.15;1.85;;;;;;;10.15;43.14;101543.38;4987446;28;20046;-76